Time;durP1;ratioP1;P1;durP2;ratioP2;P2;SDS_P1;SDS_P2;PMS_P1;PMS_P2;Temp;Humidity;BMP_temperature;BMP_pressure;BME280_temperature;BME280_humidity;BME280_pressure;Samples;Min_cycle;Max_cycle;Signal;HPM_P1;HPM_P2
2021/01/18 00:00:45;;;;;;;26.98;4.05;;;;;;;;;;5033183;28;20096;-68
2021/01/18 00:03:10;;;;;;;35.05;4.65;;;;;;;;;;5033896;28;20040;-70
2021/01/18 00:05:35;;;;;;;35.22;4.82;;;;;;;;;;5033178;28;20359;-70
2021/01/18 00:08:01;;;;;;;21.35;5.63;;;;;;;;;;5034002;28;20010;-70
2021/01/18 00:10:26;;;;;;;31.35;5.28;;;;;;;;;;5034385;28;20057;-71
2021/01/18 00:12:52;;;;;;;17.58;5.15;;;;;;;;;;5034011;28;20112;-70
2021/01/18 00:15:19;;;;;;;27.67;4.30;;;;;;;;;;5033686;28;20432;-70
2021/01/18 00:17:44;;;;;;;29.02;5.15;;;;;;;;;;5034317;28;20124;-70
2021/01/18 00:20:11;;;;;;;27.23;5.53;;;;;;;;;;5034221;28;20057;-70
2021/01/18 00:22:37;;;;;;;39.35;6.28;;;;;;;;;;5034417;28;20022;-70
2021/01/18 00:25:13;;;;;;;22.60;5.40;;;;;;;;;;5033735;28;20026;-70
2021/01/18 00:27:42;;;;;;;27.23;5.35;;;;;;;;;;5034498;28;20037;-71
2021/01/18 00:30:09;;;;;;;30.10;4.97;;;;;;;;;;5034436;28;20064;-70
2021/01/18 00:32:34;;;;;;;29.15;5.15;;;;;;;;;;5034410;28;20048;-71
2021/01/18 00:35:00;;;;;;;27.27;6.50;;;;;;;;;;5033433;28;20017;-71
2021/01/18 00:37:25;;;;;;;38.28;12.25;;;;;;;;;;5034174;28;20033;-68
2021/01/18 00:39:50;;;;;;;38.45;12.57;;;;;;;;;;5033815;28;20057;-68
2021/01/18 00:42:19;;;;;;;32.33;7.97;;;;;;;;;;5033978;28;20104;-68
2021/01/18 00:44:45;;;;;;;36.38;8.52;;;;;;;;;;5033315;28;20038;-68
2021/01/18 00:47:10;;;;;;;29.98;6.43;;;;;;;;;;5033310;28;20392;-68
2021/01/18 00:49:35;;;;;;;42.25;6.57;;;;;;;;;;5033514;28;20377;-68
2021/01/18 00:52:01;;;;;;;31.40;6.25;;;;;;;;;;5033605;28;20036;-68
2021/01/18 00:54:26;;;;;;;34.53;7.60;;;;;;;;;;5032632;28;20029;-68
2021/01/18 00:56:51;;;;;;;35.25;7.65;;;;;;;;;;5031775;28;20017;-68
2021/01/18 00:59:16;;;;;;;39.85;10.20;;;;;;;;;;5032270;28;20057;-68
2021/01/18 01:01:42;;;;;;;36.30;11.93;;;;;;;;;;5031494;28;20095;-68
2021/01/18 01:04:07;;;;;;;52.72;19.25;;;;;;;;;;5032517;28;20087;-68
2021/01/18 01:06:33;;;;;;;52.38;18.35;;;;;;;;;;5032781;28;20441;-68
2021/01/18 01:08:58;;;;;;;52.22;21.83;;;;;;;;;;5026603;28;20037;-67
2021/01/18 01:11:23;;;;;;;55.67;18.00;;;;;;;;;;5030209;28;20042;-70
2021/01/18 01:13:49;;;;;;;47.97;17.50;;;;;;;;;;5033184;28;20093;-70
2021/01/18 01:16:14;;;;;;;31.25;14.27;;;;;;;;;;5036472;28;20473;-71
2021/01/18 01:18:39;;;;;;;45.08;15.05;;;;;;;;;;5049256;28;20473;-71
2021/01/18 01:21:05;;;;;;;49.20;14.90;;;;;;;;;;5036692;28;20024;-71
2021/01/18 01:23:30;;;;;;;46.63;12.23;;;;;;;;;;5045912;28;20500;-68
2021/01/18 01:25:56;;;;;;;44.83;11.43;;;;;;;;;;5044627;28;20034;-68
2021/01/18 01:28:22;;;;;;;43.17;11.82;;;;;;;;;;5038883;28;20501;-68
2021/01/18 01:30:47;;;;;;;34.70;9.60;;;;;;;;;;5038156;28;20041;-68
2021/01/18 01:33:13;;;;;;;35.55;7.68;;;;;;;;;;5035283;28;20049;-68
2021/01/18 01:35:38;;;;;;;36.67;8.60;;;;;;;;;;5033233;28;20030;-68
2021/01/18 01:38:04;;;;;;;29.27;7.95;;;;;;;;;;5044120;28;20406;-68
2021/01/18 01:40:29;;;;;;;36.50;8.13;;;;;;;;;;5033010;28;20535;-68
2021/01/18 01:42:54;;;;;;;40.35;8.45;;;;;;;;;;5032632;28;20033;-68
2021/01/18 01:45:20;;;;;;;44.85;8.50;;;;;;;;;;5032733;28;20080;-68
2021/01/18 01:47:53;;;;;;;32.35;7.25;;;;;;;;;;5032701;28;20131;-68
2021/01/18 01:50:22;;;;;;;29.60;5.57;;;;;;;;;;5032781;28;20029;-68
2021/01/18 01:52:53;;;;;;;27.17;6.03;;;;;;;;;;5032904;28;20049;-68
2021/01/18 01:55:23;;;;;;;23.80;6.47;;;;;;;;;;5032723;28;20065;-68
2021/01/18 01:57:48;;;;;;;20.90;5.03;;;;;;;;;;5032894;28;20045;-68
2021/01/18 02:00:15;;;;;;;23.23;5.95;;;;;;;;;;5027607;28;20071;-71
2021/01/18 02:02:40;;;;;;;36.65;7.18;;;;;;;;;;5032258;28;20025;-70
2021/01/18 02:05:10;;;;;;;23.83;5.60;;;;;;;;;;5032332;28;20061;-70
2021/01/18 02:07:36;;;;;;;24.27;5.55;;;;;;;;;;5032734;28;20033;-70
2021/01/18 02:10:01;;;;;;;24.63;5.70;;;;;;;;;;5032314;28;20052;-71
2021/01/18 02:12:26;;;;;;;38.42;6.40;;;;;;;;;;5032720;28;20029;-70
2021/01/18 02:15:27;;;;;;;27.50;5.47;;;;;;;;;;5032312;28;20462;-71
2021/01/18 02:17:53;;;;;;;26.77;4.75;;;;;;;;;;4990771;28;20142;-71
2021/01/18 02:20:21;;;;;;;27.00;5.38;;;;;;;;;;5023315;28;20120;-70
2021/01/18 02:22:58;;;;;;;27.58;5.30;;;;;;;;;;5032610;28;20021;-70
2021/01/18 02:25:23;;;;;;;32.95;6.13;;;;;;;;;;5032418;28;20037;-70
2021/01/18 02:27:59;;;;;;;18.15;5.80;;;;;;;;;;5032563;28;20034;-68
2021/01/18 02:30:47;;;;;;;29.13;5.50;;;;;;;;;;5032404;28;20473;-68
2021/01/18 02:33:32;;;;;;;26.60;5.60;;;;;;;;;;5031782;28;20176;-68
2021/01/18 02:36:12;;;;;;;32.28;5.72;;;;;;;;;;5032373;28;20038;-70
2021/01/18 02:38:56;;;;;;;25.48;5.35;;;;;;;;;;5032104;28;20140;-70
2021/01/18 02:41:40;;;;;;;23.98;5.55;;;;;;;;;;5032280;28;20116;-70
2021/01/18 02:44:07;;;;;;;25.23;4.72;;;;;;;;;;5032170;28;20076;-70
2021/01/18 02:46:33;;;;;;;32.15;5.95;;;;;;;;;;5032381;28;20045;-69
2021/01/18 02:49:00;;;;;;;24.75;6.22;;;;;;;;;;5032133;28;20037;-70
2021/01/18 02:51:27;;;;;;;28.02;5.72;;;;;;;;;;5032348;28;20068;-70
2021/01/18 02:53:55;;;;;;;26.05;5.40;;;;;;;;;;5032217;28;20035;-70
2021/01/18 02:56:24;;;;;;;19.42;5.40;;;;;;;;;;5032168;28;20038;-70
2021/01/18 02:58:50;;;;;;;42.65;5.20;;;;;;;;;;5032058;28;20028;-70
2021/01/18 03:01:17;;;;;;;31.02;6.28;;;;;;;;;;5031866;28;20516;-70
2021/01/18 03:03:45;;;;;;;25.67;5.45;;;;;;;;;;5032110;28;20033;-70
2021/01/18 03:06:16;;;;;;;28.90;5.47;;;;;;;;;;5032090;28;20037;-70
2021/01/18 03:08:42;;;;;;;26.00;5.82;;;;;;;;;;5032152;28;20034;-70
2021/01/18 03:11:13;;;;;;;16.88;4.97;;;;;;;;;;5031963;28;20164;-70
2021/01/18 03:13:46;;;;;;;28.90;5.68;;;;;;;;;;5032099;28;20417;-70
2021/01/18 03:16:19;;;;;;;22.88;5.00;;;;;;;;;;5032066;28;20429;-70
2021/01/18 03:18:45;;;;;;;40.28;6.72;;;;;;;;;;5030735;28;20469;-70
2021/01/18 03:21:11;;;;;;;27.52;5.35;;;;;;;;;;5031994;28;20032;-70
2021/01/18 03:23:43;;;;;;;33.92;5.93;;;;;;;;;;5031917;28;20453;-70
2021/01/18 03:26:09;;;;;;;32.00;5.25;;;;;;;;;;5033898;28;20075;-70
2021/01/18 03:28:34;;;;;;;31.20;6.60;;;;;;;;;;5035240;28;20485;-69
2021/01/18 03:31:00;;;;;;;47.38;6.22;;;;;;;;;;5035569;28;20060;-69
2021/01/18 03:33:26;;;;;;;25.90;5.47;;;;;;;;;;5035381;28;20048;-69
2021/01/18 03:35:52;;;;;;;19.75;5.35;;;;;;;;;;5035217;28;20474;-70
2021/01/18 03:38:17;;;;;;;26.35;5.90;;;;;;;;;;5035560;28;20037;-69
2021/01/18 03:40:42;;;;;;;21.13;5.72;;;;;;;;;;5035277;28;20472;-70
2021/01/18 03:43:08;;;;;;;20.48;5.32;;;;;;;;;;5035367;28;20033;-68
2021/01/18 03:45:35;;;;;;;24.85;5.53;;;;;;;;;;5035211;28;20105;-69
2021/01/18 03:48:00;;;;;;;29.33;6.35;;;;;;;;;;5035183;28;20136;-69
2021/01/18 03:50:26;;;;;;;21.08;5.97;;;;;;;;;;5035166;28;20068;-70
2021/01/18 03:52:52;;;;;;;36.80;6.35;;;;;;;;;;5035152;28;20034;-70
2021/01/18 03:55:17;;;;;;;29.20;6.57;;;;;;;;;;5034958;28;20018;-69
2021/01/18 03:57:49;;;;;;;25.88;6.05;;;;;;;;;;5035105;28;20501;-69
2021/01/18 04:00:16;;;;;;;21.20;5.68;;;;;;;;;;5033441;28;20461;-70
2021/01/18 04:02:41;;;;;;;31.02;6.47;;;;;;;;;;5035016;28;20021;-70
2021/01/18 04:05:07;;;;;;;19.83;5.55;;;;;;;;;;5034830;28;20090;-70
2021/01/18 04:07:33;;;;;;;26.13;5.43;;;;;;;;;;5033582;28;20540;-70
2021/01/18 04:09:58;;;;;;;22.17;5.50;;;;;;;;;;5034658;28;20547;-69
2021/01/18 04:12:23;;;;;;;31.98;5.70;;;;;;;;;;5034727;28;20033;-69
2021/01/18 04:14:49;;;;;;;35.53;5.65;;;;;;;;;;5034609;28;20482;-70
2021/01/18 04:17:15;;;;;;;25.67;5.75;;;;;;;;;;5034773;28;20027;-70
2021/01/18 04:19:40;;;;;;;25.65;6.13;;;;;;;;;;5034681;28;20022;-70
2021/01/18 04:22:06;;;;;;;30.90;6.28;;;;;;;;;;5034547;28;20438;-69
2021/01/18 04:24:32;;;;;;;28.90;5.07;;;;;;;;;;5034428;28;20025;-70
2021/01/18 04:26:58;;;;;;;26.85;5.55;;;;;;;;;;5034245;28;20927;-70
2021/01/18 04:29:23;;;;;;;22.55;5.93;;;;;;;;;;5034231;28;20063;-69
2021/01/18 04:31:48;;;;;;;25.95;5.80;;;;;;;;;;5034800;28;20018;-69
2021/01/18 04:34:14;;;;;;;33.75;4.65;;;;;;;;;;5034555;28;20037;-69
2021/01/18 04:36:39;;;;;;;26.23;5.60;;;;;;;;;;5034409;28;20034;-70
2021/01/18 04:39:06;;;;;;;24.88;5.63;;;;;;;;;;5034173;28;20037;-70
2021/01/18 04:41:31;;;;;;;16.88;4.70;;;;;;;;;;5034213;28;20080;-70
2021/01/18 04:43:57;;;;;;;21.33;5.68;;;;;;;;;;5034092;28;20374;-70
2021/01/18 04:46:23;;;;;;;28.73;5.18;;;;;;;;;;5034017;28;20052;-70
2021/01/18 04:48:48;;;;;;;27.25;5.43;;;;;;;;;;5033987;28;20036;-70
2021/01/18 04:51:14;;;;;;;32.70;6.20;;;;;;;;;;5033941;28;20029;-70
2021/01/18 04:53:43;;;;;;;17.05;4.38;;;;;;;;;;5033952;28;20052;-70
2021/01/18 04:56:23;;;;;;;13.02;5.20;;;;;;;;;;5033935;28;20033;-69
2021/01/18 04:58:52;;;;;;;21.10;4.28;;;;;;;;;;5033755;28;20363;-69
2021/01/18 05:01:21;;;;;;;25.08;4.70;;;;;;;;;;5033745;28;20102;-69
2021/01/18 05:03:52;;;;;;;23.58;4.75;;;;;;;;;;5033733;28;20029;-69
2021/01/18 05:06:32;;;;;;;16.80;4.90;;;;;;;;;;5033605;28;20052;-70
2021/01/18 05:09:12;;;;;;;25.75;5.38;;;;;;;;;;5032945;28;20391;-70
2021/01/18 05:11:37;;;;;;;21.55;6.20;;;;;;;;;;5033224;28;20056;-69
2021/01/18 05:14:04;;;;;;;19.40;5.65;;;;;;;;;;5033498;28;20037;-69
2021/01/18 05:16:32;;;;;;;26.55;5.50;;;;;;;;;;5033531;28;20018;-70
2021/01/18 05:18:59;;;;;;;18.85;4.72;;;;;;;;;;5033456;28;20041;-69
2021/01/18 05:21:24;;;;;;;26.95;5.78;;;;;;;;;;5033391;28;20064;-69
2021/01/18 05:23:49;;;;;;;21.48;5.22;;;;;;;;;;5033227;28;20044;-70
2021/01/18 05:26:16;;;;;;;21.15;4.63;;;;;;;;;;5033368;28;20394;-70
2021/01/18 05:28:46;;;;;;;27.65;6.40;;;;;;;;;;5033289;28;20046;-70
2021/01/18 05:31:29;;;;;;;22.98;4.18;;;;;;;;;;5033370;28;20029;-69
2021/01/18 05:33:56;;;;;;;26.02;4.57;;;;;;;;;;5033230;28;20352;-69
2021/01/18 05:36:33;;;;;;;28.33;5.50;;;;;;;;;;5033186;28;20037;-70
2021/01/18 05:39:07;;;;;;;22.70;4.80;;;;;;;;;;5033164;28;20036;-70
2021/01/18 05:41:32;;;;;;;18.85;4.50;;;;;;;;;;5033000;28;20393;-70
2021/01/18 05:44:01;;;;;;;32.33;5.68;;;;;;;;;;5033085;28;20027;-69
2021/01/18 05:46:27;;;;;;;31.88;5.18;;;;;;;;;;5032854;28;20103;-70
2021/01/18 05:48:53;;;;;;;17.45;5.30;;;;;;;;;;5032368;28;20042;-70
2021/01/18 05:51:19;;;;;;;20.35;4.60;;;;;;;;;;5032944;28;20025;-70
2021/01/18 05:53:44;;;;;;;15.27;4.57;;;;;;;;;;5032853;28;20025;-69
2021/01/18 05:56:15;;;;;;;22.00;4.88;;;;;;;;;;5032887;28;20524;-69
2021/01/18 05:58:41;;;;;;;28.15;5.68;;;;;;;;;;5032780;28;20025;-69
2021/01/18 06:01:06;;;;;;;30.33;6.00;;;;;;;;;;5032840;28;20025;-70
2021/01/18 06:03:31;;;;;;;15.85;5.18;;;;;;;;;;5032757;28;20045;-69
2021/01/18 06:05:58;;;;;;;21.55;4.88;;;;;;;;;;5031863;28;20109;-69
2021/01/18 06:08:24;;;;;;;32.03;5.10;;;;;;;;;;5032698;28;20067;-69
2021/01/18 06:10:50;;;;;;;23.75;5.00;;;;;;;;;;5032235;28;20498;-70
2021/01/18 06:13:18;;;;;;;18.50;4.68;;;;;;;;;;5032636;28;20052;-69
2021/01/18 06:15:44;;;;;;;24.15;5.43;;;;;;;;;;5032966;28;20026;-70
2021/01/18 06:18:12;;;;;;;19.08;4.93;;;;;;;;;;5032695;28;20620;-70
2021/01/18 06:20:37;;;;;;;22.67;5.32;;;;;;;;;;5032267;28;20409;-70
2021/01/18 06:23:02;;;;;;;26.65;5.40;;;;;;;;;;5032549;28;20040;-69
2021/01/18 06:25:35;;;;;;;27.33;5.55;;;;;;;;;;5032622;28;20071;-69
2021/01/18 06:28:00;;;;;;;28.95;6.50;;;;;;;;;;5032583;28;20044;-69
2021/01/18 06:30:27;;;;;;;21.88;5.40;;;;;;;;;;5032437;28;20068;-70
2021/01/18 06:33:11;;;;;;;18.15;5.20;;;;;;;;;;5032428;28;20029;-69
2021/01/18 06:35:37;;;;;;;35.95;7.03;;;;;;;;;;5032442;28;20061;-69
2021/01/18 06:38:06;;;;;;;24.10;5.82;;;;;;;;;;5032469;28;20068;-69
2021/01/18 06:40:33;;;;;;;23.02;6.07;;;;;;;;;;5032250;28;20460;-70
2021/01/18 06:42:58;;;;;;;20.55;5.25;;;;;;;;;;5032489;28;20373;-69
2021/01/18 06:45:30;;;;;;;21.63;5.78;;;;;;;;;;5032278;28;20048;-69
2021/01/18 06:47:56;;;;;;;22.48;5.57;;;;;;;;;;5032465;28;20033;-69
2021/01/18 06:50:22;;;;;;;24.95;6.03;;;;;;;;;;5032225;28;20060;-70
2021/01/18 06:52:54;;;;;;;17.13;4.68;;;;;;;;;;5032452;28;20044;-69
2021/01/18 06:55:25;;;;;;;23.08;4.68;;;;;;;;;;5032293;28;20022;-69
2021/01/18 06:58:09;;;;;;;24.15;4.70;;;;;;;;;;5032299;28;20057;-69
2021/01/18 07:00:38;;;;;;;16.75;4.00;;;;;;;;;;5033318;28;20036;-69
2021/01/18 07:03:11;;;;;;;19.15;5.25;;;;;;;;;;5036099;28;20037;-70
2021/01/18 07:05:44;;;;;;;23.77;4.53;;;;;;;;;;5034628;28;20120;-69
2021/01/18 07:08:13;;;;;;;18.73;4.40;;;;;;;;;;5036023;28;20037;-69
2021/01/18 07:10:43;;;;;;;19.20;4.90;;;;;;;;;;5035552;28;20383;-70
2021/01/18 07:13:09;;;;;;;20.63;5.70;;;;;;;;;;5034617;28;20444;-69
2021/01/18 07:15:39;;;;;;;18.40;4.55;;;;;;;;;;5035565;28;20121;-69
2021/01/18 07:18:08;;;;;;;17.38;4.80;;;;;;;;;;5035747;28;20025;-70
2021/01/18 07:20:37;;;;;;;24.00;4.30;;;;;;;;;;5035488;28;20521;-69
2021/01/18 07:23:15;;;;;;;16.25;5.15;;;;;;;;;;5035444;28;20601;-69
2021/01/18 07:25:40;;;;;;;24.20;5.15;;;;;;;;;;5035623;28;20104;-69
2021/01/18 07:28:07;;;;;;;26.92;5.45;;;;;;;;;;5035123;28;20144;-69
2021/01/18 07:30:33;;;;;;;18.17;4.20;;;;;;;;;;5035553;28;20144;-69
2021/01/18 07:33:04;;;;;;;16.88;4.65;;;;;;;;;;5035583;28;20104;-69
2021/01/18 07:35:30;;;;;;;19.63;5.05;;;;;;;;;;5035257;28;20029;-69
2021/01/18 07:38:08;;;;;;;15.70;4.30;;;;;;;;;;5035490;28;20034;-69
2021/01/18 07:40:34;;;;;;;22.10;4.68;;;;;;;;;;5035109;28;20402;-69
2021/01/18 07:42:59;;;;;;;16.83;4.57;;;;;;;;;;5035363;28;20048;-69
2021/01/18 07:45:24;;;;;;;23.15;4.53;;;;;;;;;;5034918;28;20022;-69
2021/01/18 07:47:55;;;;;;;15.75;4.97;;;;;;;;;;5035241;28;20041;-69
2021/01/18 07:50:37;;;;;;;29.58;5.38;;;;;;;;;;5035058;28;20036;-69
2021/01/18 07:53:03;;;;;;;16.27;3.97;;;;;;;;;;5035145;28;20036;-69
2021/01/18 07:55:29;;;;;;;16.33;4.88;;;;;;;;;;5034982;28;20037;-70
2021/01/18 07:57:54;;;;;;;15.05;4.07;;;;;;;;;;5035128;28;20097;-69
2021/01/18 08:00:19;;;;;;;18.60;4.82;;;;;;;;;;5034623;28;20116;-70
2021/01/18 08:02:48;;;;;;;20.15;4.45;;;;;;;;;;5035139;28;20060;-69
2021/01/18 08:05:20;;;;;;;16.77;4.38;;;;;;;;;;5034600;28;20520;-69
2021/01/18 08:08:02;;;;;;;36.00;5.40;;;;;;;;;;5034928;28;20037;-71
2021/01/18 08:11:03;;;;;;;18.67;4.97;;;;;;;;;;5034512;28;20470;-71
2021/01/18 08:13:45;;;;;;;22.88;5.80;;;;;;;;;;5012376;28;20072;-72
2021/01/18 08:16:18;;;;;;;22.75;5.18;;;;;;;;;;5032246;28;20517;-72
2021/01/18 08:18:55;;;;;;;28.65;5.80;;;;;;;;;;5034795;28;20108;-69
2021/01/18 08:21:33;;;;;;;22.95;5.05;;;;;;;;;;5034564;28;20124;-69
2021/01/18 08:23:58;;;;;;;24.05;6.03;;;;;;;;;;5034536;28;20028;-69
2021/01/18 08:26:24;;;;;;;17.17;6.38;;;;;;;;;;5034409;28;20045;-69
2021/01/18 08:28:49;;;;;;;14.02;4.85;;;;;;;;;;5034551;28;20014;-69
2021/01/18 08:31:14;;;;;;;21.38;5.03;;;;;;;;;;5034508;28;20422;-71
2021/01/18 08:33:40;;;;;;;19.58;5.50;;;;;;;;;;5034413;28;20034;-71
2021/01/18 08:36:05;;;;;;;16.50;4.85;;;;;;;;;;5034395;28;20056;-71
2021/01/18 08:38:31;;;;;;;14.93;4.53;;;;;;;;;;5034014;28;20034;-71
2021/01/18 08:41:01;;;;;;;17.02;4.95;;;;;;;;;;5034112;28;20036;-71
2021/01/18 08:43:43;;;;;;;13.85;4.10;;;;;;;;;;5034053;28;20466;-68
2021/01/18 08:46:28;;;;;;;22.95;5.20;;;;;;;;;;5033582;28;20544;-69
2021/01/18 08:49:13;;;;;;;31.33;4.80;;;;;;;;;;5034725;28;20041;-69
2021/01/18 08:51:48;;;;;;;14.73;3.53;;;;;;;;;;5032962;28;20037;-69
2021/01/18 08:54:32;;;;;;;12.20;4.05;;;;;;;;;;5033978;28;20044;-68
2021/01/18 08:57:16;;;;;;;15.57;4.35;;;;;;;;;;5033924;28;20065;-68
2021/01/18 08:59:41;;;;;;;30.40;12.50;;;;;;;;;;5033108;28;20052;-68
2021/01/18 09:02:06;;;;;;;18.92;4.20;;;;;;;;;;5033311;28;20025;-70
2021/01/18 09:04:32;;;;;;;19.00;3.92;;;;;;;;;;5033181;28;20469;-70
2021/01/18 09:07:01;;;;;;;23.08;4.40;;;;;;;;;;5032797;28;20125;-70
2021/01/18 09:09:26;;;;;;;12.00;3.90;;;;;;;;;;5032069;28;20064;-70
2021/01/18 09:11:52;;;;;;;10.63;3.63;;;;;;;;;;5032577;28;20503;-70
2021/01/18 09:14:20;;;;;;;18.48;3.92;;;;;;;;;;5032285;28;20025;-68
2021/01/18 09:16:45;;;;;;;8.75;3.17;;;;;;;;;;5032710;28;20371;-69
2021/01/18 09:19:11;;;;;;;14.82;2.78;;;;;;;;;;5032982;28;20092;-68
2021/01/18 09:21:37;;;;;;;16.02;3.20;;;;;;;;;;5033146;28;20049;-68
2021/01/18 09:24:07;;;;;;;10.40;2.90;;;;;;;;;;5032085;28;20025;-68
2021/01/18 09:26:32;;;;;;;10.95;3.05;;;;;;;;;;5030048;28;20042;-68
2021/01/18 09:28:57;;;;;;;11.25;3.10;;;;;;;;;;5032729;28;20477;-68
2021/01/18 09:31:23;;;;;;;13.40;3.10;;;;;;;;;;5032607;28;20030;-68
2021/01/18 09:33:48;;;;;;;12.48;3.20;;;;;;;;;;5032953;28;20044;-68
2021/01/18 09:36:15;;;;;;;18.23;3.42;;;;;;;;;;5032630;28;20018;-68
2021/01/18 09:38:41;;;;;;;15.80;4.05;;;;;;;;;;5032717;28;20029;-68
2021/01/18 09:41:07;;;;;;;16.27;4.38;;;;;;;;;;5030042;28;20029;-68
2021/01/18 09:43:32;;;;;;;20.85;4.22;;;;;;;;;;5031350;28;20014;-68
2021/01/18 09:45:58;;;;;;;9.45;3.92;;;;;;;;;;5032129;28;20037;-68
2021/01/18 09:48:24;;;;;;;14.48;5.45;;;;;;;;;;5031948;28;20482;-68
2021/01/18 09:50:56;;;;;;;22.15;5.45;;;;;;;;;;5032398;28;20024;-68
2021/01/18 09:53:22;;;;;;;17.30;5.65;;;;;;;;;;5033000;28;20037;-68
2021/01/18 09:55:48;;;;;;;12.50;4.47;;;;;;;;;;5032851;28;20040;-68
2021/01/18 09:58:20;;;;;;;11.55;4.68;;;;;;;;;;5032784;28;20427;-68
2021/01/18 10:00:48;;;;;;;11.82;4.47;;;;;;;;;;5024846;28;20501;-70
2021/01/18 10:03:34;;;;;;;13.60;4.40;;;;;;;;;;5031628;28;20037;-70
2021/01/18 10:06:06;;;;;;;10.60;3.97;;;;;;;;;;5031070;28;20034;-70
2021/01/18 10:08:33;;;;;;;15.85;5.25;;;;;;;;;;5031685;28;20035;-70
2021/01/18 10:10:59;;;;;;;18.75;5.75;;;;;;;;;;5029168;28;20045;-71
2021/01/18 10:13:24;;;;;;;14.50;4.70;;;;;;;;;;5031965;28;20052;-70
2021/01/18 10:15:50;;;;;;;15.15;5.22;;;;;;;;;;5027592;28;20087;-70
2021/01/18 10:18:34;;;;;;;12.38;5.20;;;;;;;;;;5025278;28;20456;-70
2021/01/18 10:21:00;;;;;;;14.43;4.38;;;;;;;;;;5022149;28;20055;-70
2021/01/18 10:23:32;;;;;;;11.15;4.10;;;;;;;;;;5027946;28;20481;-71
2021/01/18 10:26:15;;;;;;;13.50;5.15;;;;;;;;;;5025632;28;20025;-70
2021/01/18 10:28:49;;;;;;;13.00;4.10;;;;;;;;;;5020316;28;20037;-70
2021/01/18 10:31:17;;;;;;;15.35;4.85;;;;;;;;;;5017516;28;20040;-70
2021/01/18 10:33:43;;;;;;;8.45;3.35;;;;;;;;;;5022230;28;20540;-70
2021/01/18 10:36:08;;;;;;;10.55;3.67;;;;;;;;;;5038441;28;20041;-70
2021/01/18 10:38:37;;;;;;;8.90;3.30;;;;;;;;;;5037394;28;20451;-70
2021/01/18 10:41:06;;;;;;;8.48;3.10;;;;;;;;;;5029821;28;20533;-70
2021/01/18 10:43:32;;;;;;;9.77;3.35;;;;;;;;;;5040871;28;20442;-70
2021/01/18 10:45:57;;;;;;;9.70;3.85;;;;;;;;;;5029044;28;20040;-70
2021/01/18 10:48:27;;;;;;;16.33;5.15;;;;;;;;;;5025371;28;20480;-70
2021/01/18 10:50:56;;;;;;;13.88;4.07;;;;;;;;;;5036877;28;20040;-71
2021/01/18 10:53:26;;;;;;;14.77;4.85;;;;;;;;;;5031917;28;20012;-70
2021/01/18 10:55:51;;;;;;;16.42;8.20;;;;;;;;;;5038928;28;20041;-70
2021/01/18 10:58:26;;;;;;;16.70;7.97;;;;;;;;;;5026866;28;20037;-70
2021/01/18 11:00:51;;;;;;;18.02;8.32;;;;;;;;;;5029266;28;20537;-70
2021/01/18 11:03:22;;;;;;;19.42;7.55;;;;;;;;;;5031098;28;20140;-71
2021/01/18 11:05:47;;;;;;;68.47;27.80;;;;;;;;;;5041575;28;20488;-71
2021/01/18 11:08:13;;;;;;;36.65;13.00;;;;;;;;;;5035188;28;20033;-70
2021/01/18 11:10:39;;;;;;;48.75;18.10;;;;;;;;;;5032340;28;20505;-71
2021/01/18 11:13:09;;;;;;;26.77;13.35;;;;;;;;;;5033331;28;20025;-70
2021/01/18 11:15:35;;;;;;;24.10;9.63;;;;;;;;;;5031773;28;20103;-71
2021/01/18 11:18:01;;;;;;;20.20;7.47;;;;;;;;;;5031939;28;20026;-71
2021/01/18 11:20:27;;;;;;;16.67;5.30;;;;;;;;;;5022572;28;20350;-70
2021/01/18 11:22:52;;;;;;;12.38;5.28;;;;;;;;;;5028538;28;20034;-71
2021/01/18 11:25:18;;;;;;;19.27;5.80;;;;;;;;;;5028059;28;20065;-70
2021/01/18 11:27:43;;;;;;;15.02;5.45;;;;;;;;;;5028555;28;20033;-71
2021/01/18 11:30:08;;;;;;;16.08;5.80;;;;;;;;;;5032147;28;20386;-71
2021/01/18 11:32:34;;;;;;;13.65;5.28;;;;;;;;;;5030825;28;20124;-71
2021/01/18 11:34:59;;;;;;;19.92;5.50;;;;;;;;;;5031211;28;20021;-71
2021/01/18 11:37:24;;;;;;;16.17;5.05;;;;;;;;;;5030206;28;20048;-71
2021/01/18 11:39:49;;;;;;;17.67;5.43;;;;;;;;;;5027936;28;20130;-69
2021/01/18 11:42:15;;;;;;;9.90;4.20;;;;;;;;;;5039298;28;20100;-71
2021/01/18 11:44:40;;;;;;;16.05;4.35;;;;;;;;;;5031195;28;20040;-71
2021/01/18 11:47:06;;;;;;;12.77;5.40;;;;;;;;;;5035612;28;20045;-71
2021/01/18 11:49:31;;;;;;;21.23;5.70;;;;;;;;;;5035536;28;20035;-71
2021/01/18 11:51:58;;;;;;;12.45;3.53;;;;;;;;;;5031410;28;20040;-71
2021/01/18 11:54:23;;;;;;;12.50;4.07;;;;;;;;;;5044727;28;20033;-70
2021/01/18 11:56:48;;;;;;;14.82;4.68;;;;;;;;;;5033172;28;20024;-71
2021/01/18 11:59:14;;;;;;;12.73;5.43;;;;;;;;;;5039674;28;20036;-71
2021/01/18 12:01:40;;;;;;;15.90;4.75;;;;;;;;;;5039008;28;20124;-70
2021/01/18 12:04:05;;;;;;;22.48;5.65;;;;;;;;;;5033168;28;20033;-72
2021/01/18 12:06:37;;;;;;;8.75;4.13;;;;;;;;;;5043985;28;20052;-71
2021/01/18 12:09:06;;;;;;;15.85;4.88;;;;;;;;;;5034398;28;20110;-71
2021/01/18 12:11:35;;;;;;;17.65;5.53;;;;;;;;;;5036718;28;20060;-70
2021/01/18 12:14:00;;;;;;;14.23;4.03;;;;;;;;;;5042054;28;20493;-70
2021/01/18 12:16:25;;;;;;;15.60;3.05;;;;;;;;;;5043784;28;20147;-71
2021/01/18 12:18:51;;;;;;;14.77;2.90;;;;;;;;;;5032718;28;20043;-71
2021/01/18 12:21:16;;;;;;;8.75;2.45;;;;;;;;;;5036173;28;20044;-71
2021/01/18 12:23:42;;;;;;;14.15;4.90;;;;;;;;;;5039336;28;20040;-71
2021/01/18 12:26:07;;;;;;;15.13;3.63;;;;;;;;;;5032015;28;20393;-70
2021/01/18 12:28:33;;;;;;;14.73;4.03;;;;;;;;;;5043928;28;20044;-71
2021/01/18 12:30:59;;;;;;;14.52;3.65;;;;;;;;;;5033195;28;20028;-71
2021/01/18 12:33:24;;;;;;;21.27;7.85;;;;;;;;;;5028350;28;20025;-71
2021/01/18 12:35:49;;;;;;;15.48;3.00;;;;;;;;;;5036850;28;20033;-70
2021/01/18 12:38:15;;;;;;;11.45;2.72;;;;;;;;;;5027128;28;20068;-71
2021/01/18 12:40:41;;;;;;;12.23;3.50;;;;;;;;;;5038211;28;20495;-70
2021/01/18 12:43:06;;;;;;;14.63;5.22;;;;;;;;;;5040511;28;20116;-70
2021/01/18 12:45:31;;;;;;;32.33;7.65;;;;;;;;;;5035414;28;20079;-71
2021/01/18 12:47:57;;;;;;;21.40;9.35;;;;;;;;;;5033052;28;20045;-71
2021/01/18 12:50:22;;;;;;;36.60;12.75;;;;;;;;;;5040461;28;20056;-71
2021/01/18 12:52:48;;;;;;;23.88;11.32;;;;;;;;;;5031684;28;20097;-71
2021/01/18 12:55:13;;;;;;;23.77;8.75;;;;;;;;;;5038944;28;20030;-71
2021/01/18 12:57:38;;;;;;;30.95;15.55;;;;;;;;;;5038319;28;20041;-70
2021/01/18 13:00:07;;;;;;;27.23;10.13;;;;;;;;;;5031963;28;20102;-71
2021/01/18 13:02:32;;;;;;;26.95;10.43;;;;;;;;;;5040777;28;20044;-71
2021/01/18 13:04:58;;;;;;;27.48;10.55;;;;;;;;;;5027747;28;20045;-71
2021/01/18 13:07:23;;;;;;;31.92;10.27;;;;;;;;;;5025577;28;20501;-70
2021/01/18 13:09:48;;;;;;;15.02;3.40;;;;;;;;;;5034840;28;20050;-71
2021/01/18 13:12:13;;;;;;;19.05;6.28;;;;;;;;;;5042619;28;20037;-71
2021/01/18 13:14:39;;;;;;;22.38;7.85;;;;;;;;;;5021799;28;20035;-71
2021/01/18 13:17:04;;;;;;;25.10;10.63;;;;;;;;;;5028572;28;20025;-71
2021/01/18 13:19:30;;;;;;;21.17;8.60;;;;;;;;;;5036339;28;20041;-71
2021/01/18 13:21:55;;;;;;;15.50;5.00;;;;;;;;;;5032730;28;20032;-71
2021/01/18 13:24:20;;;;;;;8.77;3.25;;;;;;;;;;5043089;28;20060;-71
2021/01/18 13:26:46;;;;;;;12.25;4.72;;;;;;;;;;5025814;28;20473;-69
2021/01/18 13:29:11;;;;;;;20.73;9.02;;;;;;;;;;5026992;28;20366;-71
2021/01/18 13:31:40;;;;;;;19.48;5.47;;;;;;;;;;5036943;28;20025;-71
2021/01/18 13:34:06;;;;;;;19.48;5.18;;;;;;;;;;5035256;28;20126;-71
2021/01/18 13:36:31;;;;;;;22.25;6.80;;;;;;;;;;5029641;28;20534;-71
2021/01/18 13:38:57;;;;;;;18.27;5.50;;;;;;;;;;5035867;28;20033;-70
2021/01/18 13:41:22;;;;;;;19.77;4.05;;;;;;;;;;5046193;28;20125;-71
2021/01/18 13:43:48;;;;;;;21.17;5.00;;;;;;;;;;5036922;28;20381;-71
2021/01/18 13:46:14;;;;;;;15.50;3.35;;;;;;;;;;5036007;28;20425;-71
2021/01/18 13:48:40;;;;;;;18.42;3.20;;;;;;;;;;5034624;28;20444;-71
2021/01/18 13:51:12;;;;;;;21.70;4.85;;;;;;;;;;5036832;28;20025;-71
2021/01/18 13:53:38;;;;;;;16.67;4.05;;;;;;;;;;5039324;28;20032;-71
2021/01/18 13:56:03;;;;;;;20.92;4.72;;;;;;;;;;5038861;28;20028;-71
2021/01/18 13:58:29;;;;;;;23.48;4.78;;;;;;;;;;5028851;28;20017;-71
2021/01/18 14:00:54;;;;;;;23.42;4.38;;;;;;;;;;5034812;28;20032;-69
2021/01/18 14:03:19;;;;;;;12.40;3.45;;;;;;;;;;5032750;28;20456;-71
2021/01/18 14:05:44;;;;;;;14.75;3.90;;;;;;;;;;5032599;28;20024;-70
2021/01/18 14:08:10;;;;;;;20.70;4.20;;;;;;;;;;5034465;28;20088;-71
2021/01/18 14:10:35;;;;;;;17.05;3.88;;;;;;;;;;5039767;28;20710;-70
2021/01/18 14:13:00;;;;;;;17.35;3.65;;;;;;;;;;5028415;28;20072;-70
2021/01/18 14:15:26;;;;;;;14.45;2.80;;;;;;;;;;5037765;28;20025;-70
2021/01/18 14:17:52;;;;;;;13.48;4.20;;;;;;;;;;5027942;28;20033;-70
2021/01/18 14:20:17;;;;;;;14.30;2.75;;;;;;;;;;5023623;28;20037;-71
2021/01/18 14:22:42;;;;;;;15.98;4.20;;;;;;;;;;5025966;28;20026;-71
2021/01/18 14:25:11;;;;;;;18.88;3.30;;;;;;;;;;5042265;28;20045;-71
2021/01/18 14:27:36;;;;;;;15.82;2.97;;;;;;;;;;5038829;28;20029;-70
2021/01/18 14:30:02;;;;;;;14.13;3.40;;;;;;;;;;5022478;28;20034;-70
2021/01/18 14:32:27;;;;;;;19.00;4.15;;;;;;;;;;5039615;28;20039;-71